Time;durP1;ratioP1;P1;durP2;ratioP2;P2;SDS_P1;SDS_P2;PMS_P1;PMS_P2;Temp;Humidity;BMP_temperature;BMP_pressure;BME280_temperature;BME280_humidity;BME280_pressure;Samples;Min_cycle;Max_cycle;Signal;HPM_P1;HPM_P2
2021/12/13 00:01:50;;;;;;;26.20;14.00;;;;;;;;;;5060462;28;20453;-71
2021/12/13 00:04:21;;;;;;;22.37;12.83;;;;;;;;;;5059808;28;20457;-72
2021/12/13 00:06:54;;;;;;;22.50;11.37;;;;;;;;;;5060657;28;20445;-71
2021/12/13 00:09:25;;;;;;;25.80;13.73;;;;;;;;;;5079639;28;20523;-71
2021/12/13 00:11:59;;;;;;;27.97;13.50;;;;;;;;;;5080746;28;20457;-71
2021/12/13 00:14:28;;;;;;;25.47;13.93;;;;;;;;;;5079835;28;20509;-71
2021/12/13 00:16:59;;;;;;;24.77;11.83;;;;;;;;;;5080122;28;20464;-72
2021/12/13 00:19:34;;;;;;;26.30;13.13;;;;;;;;;;5079637;28;20923;-71
2021/12/13 00:22:06;;;;;;;24.07;13.23;;;;;;;;;;5080454;28;20454;-71
2021/12/13 00:24:39;;;;;;;23.40;10.83;;;;;;;;;;5074862;28;20457;-71
2021/12/13 00:27:11;;;;;;;24.47;12.60;;;;;;;;;;5060461;28;20519;-71
2021/12/13 00:29:45;;;;;;;23.17;11.70;;;;;;;;;;5060505;28;20481;-72
2021/12/13 00:32:18;;;;;;;19.53;10.43;;;;;;;;;;5059812;28;20470;-71
2021/12/13 00:34:48;;;;;;;27.87;11.43;;;;;;;;;;5076932;28;20445;-72
2021/12/13 00:37:22;;;;;;;21.87;12.13;;;;;;;;;;5080456;28;21046;-72
2021/12/13 00:39:52;;;;;;;19.23;9.93;;;;;;;;;;5080413;28;20838;-71
2021/12/13 00:42:21;;;;;;;19.83;11.10;;;;;;;;;;5080275;28;20899;-71
2021/12/13 00:44:52;;;;;;;14.80;10.17;;;;;;;;;;5079775;28;20449;-69
2021/12/13 00:47:23;;;;;;;18.97;9.80;;;;;;;;;;5080557;28;20510;-72
2021/12/13 00:49:55;;;;;;;18.70;8.70;;;;;;;;;;5079911;28;20888;-71
2021/12/13 00:52:25;;;;;;;19.77;9.90;;;;;;;;;;5079304;28;20488;-72
2021/12/13 00:54:56;;;;;;;20.30;9.70;;;;;;;;;;5080678;28;20445;-72
2021/12/13 00:57:48;;;;;;;14.90;8.53;;;;;;;;;;5079614;28;20475;-70
2021/12/13 01:00:30;;;;;;;20.23;9.60;;;;;;;;;;5080258;28;20852;-72
2021/12/13 01:03:01;;;;;;;16.87;9.00;;;;;;;;;;5079250;28;20513;-73
2021/12/13 01:05:44;;;;;;;17.43;8.60;;;;;;;;;;5066507;28;20535;-71
2021/12/13 01:11:19;;;;;;;14.03;7.93;;;;;;;;;;5062902;28;20917;-72
2021/12/13 01:13:56;;;;;;;15.20;7.30;;;;;;;;;;5058851;28;20742;-71
2021/12/13 01:16:54;;;;;;;15.00;8.40;;;;;;;;;;5060311;28;20459;-71
2021/12/13 01:19:47;;;;;;;16.80;7.20;;;;;;;;;;5059133;28;20542;-71
2021/12/13 01:22:38;;;;;;;11.73;7.20;;;;;;;;;;5058593;28;20473;-71
2021/12/13 01:25:21;;;;;;;10.80;6.90;;;;;;;;;;5059644;28;20453;-72
2021/12/13 01:27:55;;;;;;;11.60;6.30;;;;;;;;;;5059502;28;20457;-71
2021/12/13 01:30:24;;;;;;;12.10;6.27;;;;;;;;;;5058665;28;20792;-71
2021/12/13 01:33:00;;;;;;;13.07;7.60;;;;;;;;;;5076617;28;21091;-71
2021/12/13 01:35:34;;;;;;;11.03;6.73;;;;;;;;;;5073012;28;20449;-71
2021/12/13 01:38:12;;;;;;;8.47;5.07;;;;;;;;;;5079055;28;20796;-71
2021/12/13 01:40:40;;;;;;;9.23;5.07;;;;;;;;;;5067185;28;20815;-71
2021/12/13 01:43:13;;;;;;;9.33;6.40;;;;;;;;;;5058476;28;21090;-71
2021/12/13 01:45:42;;;;;;;8.93;6.13;;;;;;;;;;5058983;28;20457;-71
2021/12/13 01:48:19;;;;;;;9.13;4.40;;;;;;;;;;5058153;28;20449;-71
2021/12/13 01:50:53;;;;;;;9.43;5.40;;;;;;;;;;5066811;28;20495;-71
2021/12/13 01:53:30;;;;;;;8.90;4.23;;;;;;;;;;5075024;28;20529;-71
2021/12/13 01:56:00;;;;;;;10.23;5.53;;;;;;;;;;5077431;28;20456;-71
2021/12/13 01:58:39;;;;;;;8.73;5.13;;;;;;;;;;5078182;28;20448;-71
2021/12/13 02:01:11;;;;;;;7.13;5.40;;;;;;;;;;5077706;28;20464;-71
2021/12/13 02:03:48;;;;;;;5.80;3.40;;;;;;;;;;5078164;28;20449;-71
2021/12/13 02:06:23;;;;;;;7.37;3.90;;;;;;;;;;5078275;28;20751;-71
2021/12/13 02:08:53;;;;;;;5.50;3.70;;;;;;;;;;5072987;28;20459;-71
2021/12/13 02:11:21;;;;;;;7.50;3.23;;;;;;;;;;5058349;28;20485;-71
2021/12/13 02:14:05;;;;;;;6.40;4.23;;;;;;;;;;5057934;28;20441;-71
2021/12/13 02:19:23;;;;;;;8.57;3.70;;;;;;;;;;5057021;28;20514;-71
2021/12/13 02:21:52;;;;;;;4.93;3.43;;;;;;;;;;5056870;28;20456;-71
2021/12/13 02:24:23;;;;;;;7.90;3.70;;;;;;;;;;5057623;28;20536;-71
2021/12/13 02:26:51;;;;;;;6.10;3.60;;;;;;;;;;5058116;28;20488;-72
2021/12/13 02:29:26;;;;;;;5.70;4.00;;;;;;;;;;5057195;28;20884;-72
2021/12/13 02:31:54;;;;;;;5.43;3.60;;;;;;;;;;5057563;28;20451;-71
2021/12/13 02:34:22;;;;;;;4.20;2.33;;;;;;;;;;5057524;28;20453;-71
2021/12/13 02:36:52;;;;;;;9.53;3.50;;;;;;;;;;5056975;28;20450;-71
2021/12/13 02:39:23;;;;;;;3.63;2.63;;;;;;;;;;5057565;28;20552;-72
2021/12/13 02:41:52;;;;;;;4.67;3.63;;;;;;;;;;5057055;28;20465;-71
2021/12/13 02:44:25;;;;;;;5.27;3.60;;;;;;;;;;5056986;28;20452;-72
2021/12/13 02:46:54;;;;;;;4.93;3.33;;;;;;;;;;5074945;28;20456;-71
2021/12/13 02:49:21;;;;;;;6.10;3.70;;;;;;;;;;5077114;28;20884;-71
2021/12/13 02:51:52;;;;;;;4.27;2.60;;;;;;;;;;5077615;28;20491;-71
2021/12/13 02:54:21;;;;;;;5.57;2.87;;;;;;;;;;5077661;28;20480;-71
2021/12/13 02:56:54;;;;;;;26.00;3.60;;;;;;;;;;5077034;28;20861;-71
2021/12/13 02:59:23;;;;;;;5.60;3.23;;;;;;;;;;5077730;28;20459;-72
2021/12/13 03:01:54;;;;;;;5.00;3.20;;;;;;;;;;5076859;28;20494;-71
2021/12/13 03:04:23;;;;;;;4.90;3.37;;;;;;;;;;5077482;28;20873;-71
2021/12/13 03:06:52;;;;;;;4.43;2.80;;;;;;;;;;5077769;28;20455;-72
2021/12/13 03:09:22;;;;;;;3.90;2.90;;;;;;;;;;5077388;28;20729;-71
2021/12/13 03:11:53;;;;;;;4.70;3.10;;;;;;;;;;5077270;28;20520;-72
2021/12/13 03:14:22;;;;;;;4.60;3.20;;;;;;;;;;5077199;28;20560;-71
2021/12/13 03:16:52;;;;;;;5.43;3.13;;;;;;;;;;5076457;28;20510;-70
2021/12/13 03:19:24;;;;;;;4.40;2.60;;;;;;;;;;5076379;28;20517;-72
2021/12/13 03:22:09;;;;;;;6.10;3.90;;;;;;;;;;5077704;28;20447;-72
2021/12/13 03:24:47;;;;;;;7.07;4.37;;;;;;;;;;5077228;28;20453;-72
2021/12/13 03:27:35;;;;;;;6.20;3.33;;;;;;;;;;5077213;28;20787;-72
2021/12/13 03:30:07;;;;;;;6.30;3.47;;;;;;;;;;5072905;28;20484;-72
2021/12/13 03:32:38;;;;;;;5.70;3.93;;;;;;;;;;5079649;28;21023;-71
2021/12/13 03:35:11;;;;;;;8.03;3.10;;;;;;;;;;5081485;28;20821;-72
2021/12/13 03:37:43;;;;;;;5.67;3.13;;;;;;;;;;5081671;28;20452;-71
2021/12/13 03:40:12;;;;;;;7.30;4.10;;;;;;;;;;5081337;28;20452;-72
2021/12/13 03:42:43;;;;;;;21.63;5.07;;;;;;;;;;5081613;28;20864;-72
2021/12/13 03:45:15;;;;;;;8.20;5.07;;;;;;;;;;5080622;28;20460;-72
2021/12/13 03:47:45;;;;;;;10.90;6.20;;;;;;;;;;5081211;28;20440;-71
2021/12/13 03:50:15;;;;;;;11.03;6.00;;;;;;;;;;5080328;28;20495;-71
2021/12/13 03:52:44;;;;;;;11.03;6.73;;;;;;;;;;5079167;28;20459;-71
2021/12/13 03:55:13;;;;;;;12.43;6.53;;;;;;;;;;5080719;28;20472;-71
2021/12/13 03:57:45;;;;;;;11.33;8.33;;;;;;;;;;5080686;28;20461;-71
2021/12/13 04:00:15;;;;;;;9.70;7.47;;;;;;;;;;5080423;28;20460;-71
2021/12/13 04:02:44;;;;;;;8.87;7.00;;;;;;;;;;5081034;28;20488;-71
2021/12/13 04:05:17;;;;;;;10.50;6.67;;;;;;;;;;5080420;28;20521;-71
2021/12/13 04:07:49;;;;;;;9.60;6.80;;;;;;;;;;5081112;28;20544;-71
2021/12/13 04:10:19;;;;;;;9.73;6.53;;;;;;;;;;5081132;28;20579;-71
2021/12/13 04:12:50;;;;;;;8.17;6.07;;;;;;;;;;5080833;28;20482;-71
2021/12/13 04:15:28;;;;;;;8.30;5.70;;;;;;;;;;5080602;28;20461;-72
2021/12/13 04:18:11;;;;;;;8.30;5.90;;;;;;;;;;5081121;28;20447;-72
2021/12/13 04:20:41;;;;;;;7.53;5.30;;;;;;;;;;5081920;28;20903;-71
2021/12/13 04:23:20;;;;;;;8.77;5.13;;;;;;;;;;5075105;28;20445;-70
2021/12/13 04:25:50;;;;;;;7.90;5.40;;;;;;;;;;5073493;28;20736;-70
2021/12/13 04:28:21;;;;;;;10.50;6.03;;;;;;;;;;5079880;28;20460;-69
2021/12/13 04:30:54;;;;;;;10.03;5.73;;;;;;;;;;5071288;28;20506;-71
2021/12/13 04:33:25;;;;;;;9.90;6.07;;;;;;;;;;5061109;28;20445;-71
2021/12/13 04:35:58;;;;;;;7.87;4.67;;;;;;;;;;5068473;28;20448;-71
2021/12/13 04:38:29;;;;;;;12.87;6.30;;;;;;;;;;5080668;28;20456;-71
2021/12/13 04:40:57;;;;;;;10.20;6.43;;;;;;;;;;5081051;28;20449;-71
2021/12/13 04:43:27;;;;;;;11.90;5.73;;;;;;;;;;5079511;28;20448;-71
2021/12/13 04:46:01;;;;;;;9.87;5.87;;;;;;;;;;5079638;28;20778;-71
2021/12/13 04:48:36;;;;;;;9.50;6.30;;;;;;;;;;5080934;28;20712;-71
2021/12/13 04:51:23;;;;;;;10.20;5.43;;;;;;;;;;5080200;28;20537;-71
2021/12/13 04:53:58;;;;;;;8.47;4.77;;;;;;;;;;5080369;28;20483;-70
2021/12/13 04:56:35;;;;;;;11.27;5.33;;;;;;;;;;5081106;28;20455;-71
2021/12/13 04:59:05;;;;;;;10.53;5.40;;;;;;;;;;5081453;28;20456;-71
2021/12/13 05:01:35;;;;;;;7.63;4.97;;;;;;;;;;5081556;28;20749;-71
2021/12/13 05:04:12;;;;;;;9.80;5.77;;;;;;;;;;5060910;28;20474;-71
2021/12/13 05:06:41;;;;;;;10.17;5.50;;;;;;;;;;5061153;28;20461;-73
2021/12/13 05:09:10;;;;;;;8.70;5.90;;;;;;;;;;5060665;28;20445;-72
2021/12/13 05:11:42;;;;;;;9.67;5.30;;;;;;;;;;5059902;28;20508;-71
2021/12/13 05:14:10;;;;;;;11.43;5.53;;;;;;;;;;5060402;28;20493;-71
2021/12/13 05:16:43;;;;;;;14.50;5.93;;;;;;;;;;5059443;28;20453;-71
2021/12/13 05:19:29;;;;;;;13.23;6.00;;;;;;;;;;5040147;28;20615;-70
2021/12/13 05:22:04;;;;;;;9.57;6.17;;;;;;;;;;5039554;28;20446;-70
2021/12/13 05:24:46;;;;;;;7.57;5.60;;;;;;;;;;5045203;28;20457;-71
2021/12/13 05:27:16;;;;;;;15.30;6.20;;;;;;;;;;5059063;28;20453;-71
2021/12/13 05:29:54;;;;;;;11.73;6.07;;;;;;;;;;5059499;28;20526;-72
2021/12/13 05:32:29;;;;;;;11.80;6.23;;;;;;;;;;5059087;28;20485;-71
2021/12/13 05:35:01;;;;;;;10.17;6.77;;;;;;;;;;5058493;28;20457;-71
2021/12/13 05:37:39;;;;;;;9.90;6.10;;;;;;;;;;5057883;28;20445;-71
2021/12/13 05:40:09;;;;;;;9.47;6.20;;;;;;;;;;5044392;28;20462;-71
2021/12/13 05:42:39;;;;;;;10.50;6.47;;;;;;;;;;5039630;28;20455;-71
2021/12/13 05:45:09;;;;;;;10.93;6.10;;;;;;;;;;5038646;28;20456;-72
2021/12/13 05:47:54;;;;;;;9.23;6.70;;;;;;;;;;5051614;28;20446;-72
2021/12/13 05:50:28;;;;;;;10.83;6.23;;;;;;;;;;5043621;28;20472;-72
2021/12/13 05:53:01;;;;;;;17.37;7.50;;;;;;;;;;5058877;28;20457;-72
2021/12/13 05:55:32;;;;;;;11.57;7.20;;;;;;;;;;5057758;28;20457;-72
2021/12/13 05:58:00;;;;;;;9.13;5.80;;;;;;;;;;5050917;28;20474;-71
2021/12/13 06:00:31;;;;;;;11.03;6.27;;;;;;;;;;5037812;28;20511;-71
2021/12/13 06:03:06;;;;;;;13.73;7.63;;;;;;;;;;5048819;28;20469;-72
2021/12/13 06:05:38;;;;;;;12.47;6.57;;;;;;;;;;5039628;28;20450;-72
2021/12/13 06:08:09;;;;;;;12.40;7.50;;;;;;;;;;5037433;28;20450;-72
2021/12/13 06:10:46;;;;;;;15.23;7.60;;;;;;;;;;5046573;28;20874;-72
2021/12/13 06:13:22;;;;;;;12.77;7.00;;;;;;;;;;5058521;28;20448;-71
2021/12/13 06:15:50;;;;;;;12.20;7.43;;;;;;;;;;5058172;28;20437;-71
2021/12/13 06:18:23;;;;;;;14.50;7.00;;;;;;;;;;5055700;28;20853;-71
2021/12/13 06:21:01;;;;;;;19.27;8.27;;;;;;;;;;5058015;28;20464;-71
2021/12/13 06:23:32;;;;;;;12.97;8.30;;;;;;;;;;5056977;28;20477;-72
2021/12/13 06:26:05;;;;;;;11.40;5.93;;;;;;;;;;5056462;28;20968;-72
2021/12/13 06:28:37;;;;;;;11.60;6.50;;;;;;;;;;5057234;28;21218;-71
2021/12/13 06:31:11;;;;;;;13.47;7.00;;;;;;;;;;5055381;28;20973;-71
2021/12/13 06:33:48;;;;;;;11.23;6.07;;;;;;;;;;5039484;28;20466;-71
2021/12/13 06:36:24;;;;;;;15.27;8.90;;;;;;;;;;5039641;28;20771;-72
2021/12/13 06:38:55;;;;;;;17.63;8.50;;;;;;;;;;5048420;28;20447;-71
2021/12/13 06:41:36;;;;;;;12.67;7.87;;;;;;;;;;5056046;28;20438;-72
2021/12/13 06:44:05;;;;;;;21.73;9.37;;;;;;;;;;5054931;28;20455;-72
2021/12/13 06:46:37;;;;;;;14.97;9.00;;;;;;;;;;5049696;28;20459;-71
2021/12/13 06:49:16;;;;;;;12.90;8.43;;;;;;;;;;5054705;28;20463;-72
2021/12/13 06:51:49;;;;;;;15.50;9.93;;;;;;;;;;5055311;28;20492;-71
2021/12/13 06:54:19;;;;;;;18.20;9.40;;;;;;;;;;5055603;28;20556;-72
2021/12/13 06:56:54;;;;;;;20.20;9.77;;;;;;;;;;5055108;28;20849;-71
2021/12/13 06:59:22;;;;;;;16.03;8.80;;;;;;;;;;5055940;28;20460;-72
2021/12/13 07:02:06;;;;;;;25.00;13.10;;;;;;;;;;5054191;28;20541;-71
2021/12/13 07:04:49;;;;;;;16.67;8.87;;;;;;;;;;5056057;28;21118;-72
2021/12/13 07:07:19;;;;;;;17.17;9.23;;;;;;;;;;5056568;28;20562;-70
2021/12/13 07:09:58;;;;;;;20.83;10.00;;;;;;;;;;5055486;28;20441;-70
2021/12/13 07:12:37;;;;;;;19.27;9.03;;;;;;;;;;5055749;28;20917;-70
2021/12/13 07:15:26;;;;;;;15.43;8.40;;;;;;;;;;5056067;28;20456;-71
2021/12/13 07:18:04;;;;;;;22.87;11.77;;;;;;;;;;5052629;28;20449;-71
2021/12/13 07:20:38;;;;;;;24.80;11.90;;;;;;;;;;5054499;28;20465;-70
2021/12/13 07:23:06;;;;;;;44.87;11.47;;;;;;;;;;5055302;28;20449;-72
2021/12/13 07:25:37;;;;;;;19.83;10.80;;;;;;;;;;5053104;28;20470;-72
2021/12/13 07:28:07;;;;;;;21.70;10.03;;;;;;;;;;5050349;28;20790;-70
2021/12/13 07:30:39;;;;;;;20.90;9.47;;;;;;;;;;5050567;28;20972;-71
2021/12/13 07:33:08;;;;;;;23.40;10.33;;;;;;;;;;5046530;28;20770;-71
2021/12/13 07:35:43;;;;;;;18.67;11.40;;;;;;;;;;5056469;28;20483;-72
2021/12/13 07:38:34;;;;;;;20.67;8.57;;;;;;;;;;5054319;28;20453;-72
2021/12/13 07:41:12;;;;;;;18.13;9.70;;;;;;;;;;5054568;28;20473;-72
2021/12/13 07:43:43;;;;;;;14.90;8.10;;;;;;;;;;5055592;28;20457;-71
2021/12/13 07:46:16;;;;;;;18.93;8.30;;;;;;;;;;5055154;28;20476;-71
2021/12/13 07:48:54;;;;;;;16.00;7.63;;;;;;;;;;5051520;28;20731;-72
2021/12/13 07:51:25;;;;;;;18.20;9.07;;;;;;;;;;5036708;28;20488;-71
2021/12/13 07:54:04;;;;;;;12.30;7.03;;;;;;;;;;5044046;28;20530;-73
2021/12/13 07:56:48;;;;;;;16.10;7.90;;;;;;;;;;5055049;28;20493;-71
2021/12/13 07:59:24;;;;;;;18.13;8.00;;;;;;;;;;5054053;28;20464;-72
2021/12/13 08:01:59;;;;;;;17.40;7.70;;;;;;;;;;5049530;28;20450;-72
2021/12/13 08:04:30;;;;;;;18.73;8.80;;;;;;;;;;5040918;28;20488;-71
2021/12/13 08:07:00;;;;;;;12.87;8.00;;;;;;;;;;5055415;28;20485;-72
2021/12/13 08:09:32;;;;;;;14.30;6.97;;;;;;;;;;5055222;28;20450;-72
2021/12/13 08:12:03;;;;;;;12.57;8.70;;;;;;;;;;5056428;28;20485;-71
2021/12/13 08:14:41;;;;;;;16.90;9.10;;;;;;;;;;5047341;28;20442;-72
2021/12/13 08:17:15;;;;;;;16.30;8.00;;;;;;;;;;5053128;28;20756;-72
2021/12/13 08:19:45;;;;;;;15.10;7.43;;;;;;;;;;5059981;28;20535;-71
2021/12/13 08:22:17;;;;;;;13.57;6.33;;;;;;;;;;5059027;28;20469;-71
2021/12/13 08:24:48;;;;;;;14.70;7.07;;;;;;;;;;5059457;28;20553;-71
2021/12/13 08:27:18;;;;;;;16.63;9.77;;;;;;;;;;5059439;28;20469;-73
2021/12/13 08:29:46;;;;;;;16.57;8.53;;;;;;;;;;5060229;28;20486;-72
2021/12/13 08:32:15;;;;;;;18.40;8.90;;;;;;;;;;5059839;28;20507;-72
2021/12/13 08:34:46;;;;;;;17.03;9.17;;;;;;;;;;5059728;28;20449;-72
2021/12/13 08:37:15;;;;;;;15.47;9.03;;;;;;;;;;5058054;28;20457;-71
2021/12/13 08:39:45;;;;;;;24.43;13.63;;;;;;;;;;5059932;28;20850;-71
2021/12/13 08:42:22;;;;;;;33.00;14.47;;;;;;;;;;5058692;28;20501;-72
2021/12/13 08:44:58;;;;;;;22.40;12.60;;;;;;;;;;5059769;28;20473;-73
2021/12/13 08:47:28;;;;;;;16.20;8.90;;;;;;;;;;5056929;28;20748;-73
2021/12/13 08:50:03;;;;;;;14.03;6.33;;;;;;;;;;5057924;28;20450;-72
2021/12/13 08:52:33;;;;;;;12.80;7.27;;;;;;;;;;5057749;28;20984;-72
2021/12/13 08:55:03;;;;;;;9.03;6.60;;;;;;;;;;5056970;28;20540;-72
2021/12/13 08:57:38;;;;;;;11.87;6.93;;;;;;;;;;5056108;28;20934;-72
2021/12/13 09:00:19;;;;;;;13.13;8.40;;;;;;;;;;5054514;28;20460;-72
2021/12/13 09:02:57;;;;;;;12.70;7.40;;;;;;;;;;5038286;28;20457;-73
2021/12/13 09:05:28;;;;;;;13.23;9.50;;;;;;;;;;5049717;28;20523;-72
2021/12/13 09:07:59;;;;;;;11.90;9.20;;;;;;;;;;5056044;28;21027;-73
2021/12/13 09:10:42;;;;;;;15.00;9.10;;;;;;;;;;5045769;28;20470;-73
2021/12/13 09:13:13;;;;;;;11.83;7.47;;;;;;;;;;5034782;28;20482;-73
2021/12/13 09:15:41;;;;;;;15.80;8.80;;;;;;;;;;5038123;28;20557;-72
2021/12/13 09:18:10;;;;;;;15.20;8.60;;;;;;;;;;5037084;28;20449;-72
2021/12/13 09:20:41;;;;;;;16.40;8.47;;;;;;;;;;5046998;28;20465;-72
2021/12/13 09:23:13;;;;;;;15.50;9.03;;;;;;;;;;5056917;28;20477;-72
2021/12/13 09:25:43;;;;;;;11.17;7.30;;;;;;;;;;5057639;28;20454;-72
2021/12/13 09:28:15;;;;;;;14.87;7.93;;;;;;;;;;5056102;28;20477;-72
2021/12/13 09:30:45;;;;;;;12.50;7.57;;;;;;;;;;5056898;28;20449;-72
2021/12/13 09:33:22;;;;;;;14.90;8.27;;;;;;;;;;5048286;28;20479;-72
2021/12/13 09:35:58;;;;;;;17.67;9.93;;;;;;;;;;5054082;28;20741;-73
2021/12/13 09:38:28;;;;;;;14.53;8.20;;;;;;;;;;5054433;28;20693;-72
2021/12/13 09:40:58;;;;;;;18.83;10.50;;;;;;;;;;5056163;28;20461;-72
2021/12/13 09:43:34;;;;;;;14.80;9.30;;;;;;;;;;5052458;28;20457;-71
2021/12/13 09:46:04;;;;;;;12.23;8.63;;;;;;;;;;5055597;28;20456;-73
2021/12/13 09:48:36;;;;;;;14.37;9.10;;;;;;;;;;5055114;28;20464;-71
2021/12/13 09:51:08;;;;;;;13.67;8.10;;;;;;;;;;5051396;28;20460;-72
2021/12/13 09:53:38;;;;;;;14.33;9.10;;;;;;;;;;5041579;28;21080;-71
2021/12/13 09:56:08;;;;;;;18.00;10.30;;;;;;;;;;5051550;28;20445;-72
2021/12/13 09:58:39;;;;;;;14.20;7.97;;;;;;;;;;5049610;28;20457;-72
2021/12/13 10:01:13;;;;;;;13.50;7.43;;;;;;;;;;5048036;28;20447;-72
2021/12/13 10:03:50;;;;;;;12.33;8.17;;;;;;;;;;5035260;28;20474;-72
2021/12/13 10:06:22;;;;;;;17.20;9.83;;;;;;;;;;5041271;28;20717;-72
2021/12/13 10:08:54;;;;;;;12.20;8.33;;;;;;;;;;5042245;28;20563;-72
2021/12/13 10:11:31;;;;;;;14.10;9.60;;;;;;;;;;5056082;28;20513;-71
2021/12/13 10:14:01;;;;;;;15.13;8.93;;;;;;;;;;5053778;28;20580;-72
2021/12/13 10:16:31;;;;;;;15.20;10.00;;;;;;;;;;5042243;28;20437;-72
2021/12/13 10:18:59;;;;;;;15.90;9.50;;;;;;;;;;5048423;28;20952;-72
2021/12/13 10:21:28;;;;;;;15.70;9.83;;;;;;;;;;5043870;28;20453;-72
2021/12/13 10:24:00;;;;;;;17.27;9.90;;;;;;;;;;5054309;28;20461;-72
2021/12/13 10:26:31;;;;;;;16.73;10.60;;;;;;;;;;5053679;28;20533;-72
2021/12/13 10:29:01;;;;;;;17.73;12.27;;;;;;;;;;5055511;28;20523;-71
2021/12/13 10:31:33;;;;;;;16.30;11.17;;;;;;;;;;5053860;28;20718;-70
2021/12/13 10:34:02;;;;;;;18.07;10.63;;;;;;;;;;5048668;28;20478;-71
2021/12/13 10:36:31;;;;;;;14.10;9.43;;;;;;;;;;5052102;28;20528;-71
2021/12/13 10:39:02;;;;;;;19.50;10.70;;;;;;;;;;5054084;28;20454;-71
2021/12/13 10:41:32;;;;;;;18.37;11.70;;;;;;;;;;5038099;28;20506;-70
2021/12/13 10:44:07;;;;;;;15.37;8.07;;;;;;;;;;5049485;28;20457;-71
2021/12/13 10:49:32;;;;;;;16.30;10.93;;;;;;;;;;5052993;28;20730;-70
2021/12/13 10:52:18;;;;;;;14.60;9.30;;;;;;;;;;5051443;28;20450;-69
2021/12/13 10:54:49;;;;;;;15.53;11.20;;;;;;;;;;5039793;28;20483;-70
2021/12/13 10:57:26;;;;;;;15.00;8.33;;;;;;;;;;5046175;28;20536;-71
2021/12/13 11:00:03;;;;;;;11.90;8.70;;;;;;;;;;5051835;28;20548;-73
2021/12/13 11:02:36;;;;;;;11.90;10.07;;;;;;;;;;5045569;28;20453;-71
2021/12/13 11:05:11;;;;;;;11.60;8.07;;;;;;;;;;5045774;28;20905;-72
2021/12/13 11:07:40;;;;;;;12.13;7.63;;;;;;;;;;5051183;28;20809;-71
2021/12/13 11:10:28;;;;;;;12.00;7.50;;;;;;;;;;5049741;28;20793;-71
2021/12/13 11:13:06;;;;;;;11.73;7.80;;;;;;;;;;5053692;28;20555;-71
2021/12/13 11:15:44;;;;;;;12.67;8.60;;;;;;;;;;5052509;28;20527;-70
2021/12/13 11:18:16;;;;;;;10.70;7.17;;;;;;;;;;5051302;28;20453;-71
2021/12/13 11:20:54;;;;;;;15.37;9.47;;;;;;;;;;5053481;28;20511;-72
2021/12/13 11:23:27;;;;;;;14.57;8.10;;;;;;;;;;5053877;28;20534;-72
2021/12/13 11:25:57;;;;;;;10.47;7.87;;;;;;;;;;5045682;28;20455;-71
2021/12/13 11:28:33;;;;;;;11.53;7.63;;;;;;;;;;5050558;28;20484;-71
2021/12/13 11:31:13;;;;;;;11.37;6.80;;;;;;;;;;5050582;28;20445;-72
2021/12/13 11:33:57;;;;;;;11.73;8.27;;;;;;;;;;5052963;28;20488;-70
2021/12/13 11:36:41;;;;;;;12.50;9.30;;;;;;;;;;5053801;28;20472;-72
2021/12/13 11:39:28;;;;;;;12.20;9.33;;;;;;;;;;5051070;28;20461;-71
2021/12/13 11:42:11;;;;;;;11.63;8.37;;;;;;;;;;5053088;28;20476;-72
2021/12/13 11:44:47;;;;;;;14.40;9.10;;;;;;;;;;5053273;28;20446;-71
2021/12/13 11:47:33;;;;;;;11.53;8.77;;;;;;;;;;5053060;28;20936;-71
2021/12/13 11:50:12;;;;;;;12.10;9.07;;;;;;;;;;5053654;28;20929;-71
2021/12/13 11:52:59;;;;;;;15.40;9.50;;;;;;;;;;5056020;28;20497;-72
2021/12/13 11:55:43;;;;;;;12.10;8.77;;;;;;;;;;5057202;28;20441;-71
2021/12/13 11:58:25;;;;;;;11.90;9.23;;;;;;;;;;5024275;28;20463;-72
2021/12/13 12:01:15;;;;;;;16.07;11.10;;;;;;;;;;5056631;28;20544;-72
2021/12/13 12:03:53;;;;;;;13.80;8.37;;;;;;;;;;5053245;28;20532;-71
2021/12/13 12:06:39;;;;;;;14.00;7.90;;;;;;;;;;5056999;28;20468;-71
2021/12/13 12:09:17;;;;;;;16.50;9.80;;;;;;;;;;5056927;28;20446;-71
2021/12/13 12:12:10;;;;;;;17.00;9.47;;;;;;;;;;5056811;28;20740;-71
2021/12/13 12:14:37;;;;;;;12.20;10.03;;;;;;;;;;5059124;28;20491;-70
2021/12/13 12:17:06;;;;;;;13.73;9.63;;;;;;;;;;5076498;28;20556;-70
2021/12/13 12:19:35;;;;;;;11.37;8.13;;;;;;;;;;5058349;28;20815;-70
2021/12/13 12:22:08;;;;;;;15.60;9.10;;;;;;;;;;5053427;28;20552;-71
2021/12/13 12:24:37;;;;;;;16.93;8.87;;;;;;;;;;5054620;28;20465;-71
2021/12/13 12:27:07;;;;;;;12.80;8.87;;;;;;;;;;5054288;28;20496;-71
2021/12/13 12:29:40;;;;;;;17.47;10.07;;;;;;;;;;5054021;28;20873;-71
2021/12/13 12:32:09;;;;;;;14.07;8.90;;;;;;;;;;5050702;28;20467;-71
2021/12/13 12:34:50;;;;;;;13.50;8.43;;;;;;;;;;5045805;28;20496;-71
2021/12/13 12:37:42;;;;;;;10.07;7.60;;;;;;;;;;5049854;28;20737;-71
2021/12/13 12:40:27;;;;;;;12.37;8.43;;;;;;;;;;5052640;28;20450;-71
2021/12/13 12:42:58;;;;;;;12.10;7.47;;;;;;;;;;5046328;28;20549;-71
2021/12/13 12:45:51;;;;;;;;;;;;;;;;;;;;;
2021/12/13 12:48:21;;;;;;;14.77;9.90;;;;;;;;;;5037905;28;20450;-72
2021/12/13 12:50:54;;;;;;;11.53;6.47;;;;;;;;;;5039826;28;20974;-71
2021/12/13 12:53:27;;;;;;;11.00;7.67;;;;;;;;;;5042041;28;20489;-71
2021/12/13 12:55:59;;;;;;;11.40;8.10;;;;;;;;;;5050196;28;20867;-72
2021/12/13 12:58:40;;;;;;;9.90;7.83;;;;;;;;;;5056298;28;20540;-71
2021/12/13 13:01:20;;;;;;;8.57;6.33;;;;;;;;;;5050052;28;20449;-71
2021/12/13 13:03:49;;;;;;;10.00;6.17;;;;;;;;;;5052601;28;20449;-70
2021/12/13 13:06:38;;;;;;;9.00;5.77;;;;;;;;;;5038525;28;20516;-70
2021/12/13 13:09:11;;;;;;;14.70;9.10;;;;;;;;;;5047160;28;20683;-71
2021/12/13 13:11:44;;;;;;;9.80;6.80;;;;;;;;;;5050319;28;20803;-72
2021/12/13 13:14:18;;;;;;;11.30;7.47;;;;;;;;;;5036517;28;20548;-72
2021/12/13 13:16:47;;;;;;;9.47;6.17;;;;;;;;;;5035413;28;20461;-71
2021/12/13 13:19:33;;;;;;;10.47;6.70;;;;;;;;;;5050931;28;20560;-71
2021/12/13 13:22:02;;;;;;;10.47;7.33;;;;;;;;;;5054820;28;20453;-70
2021/12/13 13:24:33;;;;;;;8.90;6.03;;;;;;;;;;5056050;28;20441;-73
2021/12/13 13:27:01;;;;;;;10.77;5.83;;;;;;;;;;5055400;28;20533;-71
2021/12/13 13:29:39;;;;;;;12.67;7.13;;;;;;;;;;5056571;28;20454;-74
2021/12/13 13:34:56;;;;;;;11.10;7.17;;;;;;;;;;5038823;28;20473;-71
2021/12/13 13:37:30;;;;;;;13.20;8.30;;;;;;;;;;5055553;28;20458;-73
2021/12/13 13:40:04;;;;;;;10.57;6.77;;;;;;;;;;5053882;28;20469;-73
2021/12/13 13:42:41;;;;;;;13.00;9.73;;;;;;;;;;5055766;28;20485;-72
2021/12/13 13:45:23;;;;;;;15.83;9.73;;;;;;;;;;5053686;28;20780;-73
2021/12/13 13:47:52;;;;;;;15.30;10.63;;;;;;;;;;5052478;28;20453;-70
2021/12/13 13:50:30;;;;;;;18.73;10.77;;;;;;;;;;5036668;28;21203;-72
2021/12/13 13:56:43;;;;;;;19.57;12.20;;;;;;;;;;5021440;28;20528;-74
2021/12/13 13:59:16;;;;;;;12.97;8.10;;;;;;;;;;5036176;28;20441;-72
2021/12/13 14:02:04;;;;;;;12.00;7.90;;;;;;;;;;5058343;28;20450;-73
2021/12/13 14:04:40;;;;;;;11.97;6.93;;;;;;;;;;5057709;28;20460;-73
2021/12/13 14:07:10;;;;;;;13.90;9.20;;;;;;;;;;5053382;28;20453;-71
2021/12/13 14:09:42;;;;;;;13.10;7.63;;;;;;;;;;5055866;28;20489;-72
2021/12/13 14:12:12;;;;;;;12.93;8.27;;;;;;;;;;5052355;28;21013;-72
2021/12/13 14:14:52;;;;;;;15.77;9.20;;;;;;;;;;5056053;28;20482;-72
2021/12/13 14:17:53;;;;;;;12.43;9.40;;;;;;;;;;5054711;28;20983;-73
2021/12/13 14:20:32;;;;;;;24.13;17.63;;;;;;;;;;5051467;28;20548;-71
2021/12/13 14:23:20;;;;;;;15.13;10.17;;;;;;;;;;5054892;28;20518;-72
2021/12/13 14:25:55;;;;;;;12.00;6.53;;;;;;;;;;5056100;28;20515;-72
2021/12/13 14:28:50;;;;;;;10.70;7.23;;;;;;;;;;5055348;28;20454;-71
2021/12/13 14:31:19;;;;;;;16.60;8.13;;;;;;;;;;5051850;28;20454;-72
2021/12/13 14:33:54;;;;;;;10.23;7.37;;;;;;;;;;5036870;28;20490;-72
2021/12/13 14:36:27;;;;;;;9.87;7.27;;;;;;;;;;5049490;28;20456;-72
2021/12/13 14:39:13;;;;;;;16.00;8.60;;;;;;;;;;5043676;28;20458;-75
2021/12/13 14:41:46;;;;;;;12.03;8.50;;;;;;;;;;5054164;28;20453;-72
2021/12/13 14:44:21;;;;;;;13.20;7.93;;;;;;;;;;5056563;28;20470;-72
2021/12/13 14:46:55;;;;;;;13.70;9.40;;;;;;;;;;5047229;28;20465;-73
2021/12/13 14:49:24;;;;;;;14.10;9.33;;;;;;;;;;5054030;28;20465;-72
2021/12/13 14:52:01;;;;;;;14.63;9.40;;;;;;;;;;5056041;28;20540;-72
2021/12/13 14:54:36;;;;;;;15.27;10.33;;;;;;;;;;5053784;28;20755;-72
2021/12/13 14:57:35;;;;;;;17.00;11.63;;;;;;;;;;5054689;28;20449;-74
2021/12/13 15:00:27;;;;;;;23.37;13.23;;;;;;;;;;5035107;28;20528;-73
2021/12/13 15:03:07;;;;;;;30.70;20.13;;;;;;;;;;5043094;28;20465;-72
2021/12/13 15:05:54;;;;;;;18.10;9.90;;;;;;;;;;5053464;28;20484;-73
2021/12/13 15:08:37;;;;;;;15.43;10.20;;;;;;;;;;5055476;28;20461;-73
2021/12/13 15:11:18;;;;;;;16.77;11.17;;;;;;;;;;5055775;28;20451;-72
2021/12/13 15:13:48;;;;;;;17.80;10.00;;;;;;;;;;5053066;28;20511;-72
2021/12/13 15:16:16;;;;;;;18.30;10.70;;;;;;;;;;5056118;28;20510;-73
2021/12/13 15:18:47;;;;;;;17.30;10.93;;;;;;;;;;5054916;28;20457;-72
2021/12/13 15:21:18;;;;;;;16.53;10.87;;;;;;;;;;5054344;28;20468;-71
2021/12/13 15:23:49;;;;;;;26.00;13.53;;;;;;;;;;5054286;28;20457;-74
2021/12/13 15:26:19;;;;;;;18.00;11.57;;;;;;;;;;5053183;28;20526;-73
2021/12/13 15:29:01;;;;;;;;;;;;;;;;;;;;;
2021/12/13 15:31:37;;;;;;;20.23;12.20;;;;;;;;;;5058020;28;20457;-73